Share

Niamey, Niger

12:11 PM WAT on April 24, 2014 (GMT +0100)
Diori Hamani (DRRN) Elev 745 ft | 13.48 °N, 2.17 °E | Change Station

Current weather conditions updated 11 minutes ago

Clear
Clear
102 °F
Feels Like 101 °F
N
8
Wind Variable Wind from SW
Sunrise 6:33 AM
Sunset 7:05 PM
Moon Waning Crescent

Today is forecast to be nearly the same temperature as yesterday.

Pressure 29.77 in
Visibility 5.0 miles
Clouds
Heat Index 101 °F
Dew Point 55 °F
Humidity 21%
Rainfall 0.00 in
Snow Depth Not available.
UV Not available.
Pollen Not available.
Air Quality Not available.
Flu Activity Not available.
METAR DRRN 241100Z 23007KT 180V270 8000 NSC 39/13 Q1008 NOSIG

More Conditions Fewer Conditions

Pressure 29.77 in
Visibility 5.0 miles
Clouds
Heat Index 101 °F
Dew Point 55 °F
Humidity 21%
Rainfall 0.00 in
Snow Depth Not available.
UV Not available.
Pollen Not available.
Air Quality Not available.
Flu Activity Not available.
METAR DRRN 241100Z 23007KT 180V270 8000 NSC 39/13 Q1008 NOSIG

More Conditions Fewer Conditions

10-Day Weather Forecast

Almanac

Astronomy

Apr. 24, 2014 Rise Set
Actual Time 6:33 AM WAT 7:05 PM WAT
Civil Twilight 6:11 AM WAT 7:27 PM WAT
Nautical Twilight 5:45 AM WAT 7:53 PM WAT
Astronomical Twilight 5:20 AM WAT 8:19 PM WAT
Moon 2:41 AM WAT 2:52 PM WAT
Length of Visible Light 13h 16m
Length of Day
12h 32m
Tomorrow will be 0m 39s longer.
Waning Crescent, 26% of the Moon is Illuminated
Today
Waning Crescent
Apr 29
New
May 6
First Quarter
May 14
Full
May 21
Last Quarter

Yesterday's Extremes

Country Highs Country Lows

Community

  • Stacked
    Stacked
  • clouds approaching Red Sox Nation
    clouds approaching Red Sox Nation
  • Balance
    Balance
  • Nestled In
    Nestled In
  • Stunning Sunrise
    Stunning Sunrise

WunderPhotos

Upload Photos

1,704,584 photos uploaded!

WunderBlogs® & News

Nearby

Snow Depth

Not available.

Coastal Water Temperatures

Place Temperature
No Stations Reporting

Earthquake Activity

City Distance Mag. Time & Date
No recent earthquake activity has been reported nearby.
Minimum magnitude displayed is 2.5.

Nearby Weather Stations

There are no personal weather stations in this area.

What do you think?

We're not finished. Please let us know what you like, what you don't like, and what you are still missing.